Time;durP1;ratioP1;P1;durP2;ratioP2;P2;SDS_P1;SDS_P2;PMS_P1;PMS_P2;Temp;Humidity;BMP_temperature;BMP_pressure;BME280_temperature;BME280_humidity;BME280_pressure;Samples;Min_cycle;Max_cycle;Signal;HPM_P1;HPM_P2
2023/01/03 00:00:09;;;;;;;1.67;0.63;;;10.40;99.90;;;;;;5073956;28;20383;-66
2023/01/03 00:02:35;;;;;;;1.17;0.55;;;10.30;99.90;;;;;;5055523;28;20082;-66
2023/01/03 00:05:00;;;;;;;0.93;0.60;;;10.30;99.90;;;;;;5055528;28;20062;-66
2023/01/03 00:07:32;;;;;;;0.63;0.50;;;10.20;99.90;;;;;;5073481;28;20020;-66
2023/01/03 00:09:59;;;;;;;1.55;0.52;;;10.10;99.90;;;;;;5055694;28;20051;-66
2023/01/03 00:12:26;;;;;;;2.30;0.60;;;10.20;99.90;;;;;;5055545;28;20028;-66
2023/01/03 00:14:51;;;;;;;0.60;0.50;;;10.20;99.90;;;;;;5073281;28;20111;-66
2023/01/03 00:17:18;;;;;;;1.38;0.77;;;10.30;99.90;;;;;;5073477;28;20104;-66
2023/01/03 00:19:45;;;;;;;2.83;0.63;;;10.30;99.90;;;;;;5055697;28;20064;-66
2023/01/03 00:22:12;;;;;;;1.52;0.50;;;10.30;99.90;;;;;;5055365;28;20020;-66
2023/01/03 00:24:38;;;;;;;1.67;0.55;;;10.30;99.90;;;;;;5055308;28;20036;-66
2023/01/03 00:27:04;;;;;;;1.40;0.45;;;10.40;99.90;;;;;;5055734;28;20025;-66
2023/01/03 00:29:30;;;;;;;1.85;0.88;;;10.40;99.90;;;;;;5055563;28;20074;-66
2023/01/03 00:31:56;;;;;;;0.88;0.70;;;10.40;99.90;;;;;;5055471;28;20028;-66
2023/01/03 00:34:22;;;;;;;0.85;0.40;;;10.50;99.90;;;;;;5055686;28;20020;-66
2023/01/03 00:36:47;;;;;;;0.90;0.57;;;10.40;99.90;;;;;;5073502;28;20020;-66
2023/01/03 00:39:13;;;;;;;10.55;1.00;;;10.40;99.90;;;;;;5073252;28;20028;-66
2023/01/03 00:41:39;;;;;;;3.60;0.60;;;10.40;99.90;;;;;;5055586;28;20021;-66
2023/01/03 00:44:05;;;;;;;0.80;0.65;;;10.40;99.90;;;;;;5055249;28;20078;-66
2023/01/03 00:46:31;;;;;;;2.25;0.60;;;10.40;99.90;;;;;;5055448;28;20024;-66
2023/01/03 00:48:57;;;;;;;2.13;0.73;;;10.30;99.90;;;;;;5073475;28;20101;-66
2023/01/03 00:51:26;;;;;;;3.85;0.60;;;10.30;99.90;;;;;;5055011;28;20071;-66
2023/01/03 00:53:55;;;;;;;1.55;0.52;;;10.40;99.90;;;;;;5055441;28;20021;-67
2023/01/03 00:56:23;;;;;;;3.78;0.70;;;10.40;99.90;;;;;;5073368;28;20107;-66
2023/01/03 00:58:49;;;;;;;2.33;0.55;;;10.40;99.90;;;;;;5055495;28;20031;-67
2023/01/03 01:01:19;;;;;;;3.85;0.60;;;10.40;99.90;;;;;;5054976;28;20029;-67
2023/01/03 01:03:50;;;;;;;2.00;0.60;;;10.40;99.90;;;;;;5073186;28;20040;-66
2023/01/03 01:06:19;;;;;;;2.15;0.50;;;10.40;99.90;;;;;;5073034;28;20106;-67
2023/01/03 01:08:46;;;;;;;1.05;0.50;;;10.40;99.90;;;;;;5055838;28;20043;-66
2023/01/03 01:11:13;;;;;;;1.85;0.70;;;10.30;99.90;;;;;;5073339;28;20038;-66
2023/01/03 01:13:39;;;;;;;0.75;0.50;;;10.30;99.90;;;;;;5055078;28;20078;-66
2023/01/03 01:16:08;;;;;;;0.73;0.40;;;10.30;99.90;;;;;;5054973;28;20052;-66
2023/01/03 01:18:34;;;;;;;1.58;0.70;;;10.30;99.90;;;;;;5054952;28;20021;-66
2023/01/03 01:21:04;;;;;;;1.92;1.05;;;10.30;99.90;;;;;;5055000;28;20028;-67
2023/01/03 01:23:29;;;;;;;3.65;0.57;;;10.30;99.90;;;;;;5054626;28;20025;-66
2023/01/03 01:26:00;;;;;;;0.75;0.52;;;10.40;99.90;;;;;;5059121;28;20017;-66
2023/01/03 01:28:25;;;;;;;1.90;0.40;;;10.40;99.90;;;;;;5076858;28;20017;-66
2023/01/03 01:30:51;;;;;;;5.00;0.85;;;10.40;99.90;;;;;;5058615;28;20025;-67
2023/01/03 01:33:16;;;;;;;1.90;0.80;;;10.40;99.90;;;;;;5058782;28;20567;-67
2023/01/03 01:35:42;;;;;;;0.95;0.52;;;10.50;99.90;;;;;;5076694;28;20360;-66
2023/01/03 01:38:07;;;;;;;0.65;0.60;;;10.50;99.90;;;;;;5058503;28;20033;-66
2023/01/03 01:40:33;;;;;;;6.80;1.48;;;10.50;99.90;;;;;;5076227;28;20024;-66
2023/01/03 01:46:24;;;;;;;2.05;0.80;;;10.60;99.90;;;;;;4995036;28;20161;-66
2023/01/03 01:48:55;;;;;;;1.13;0.80;;;10.50;99.90;;;;;;4994755;28;20034;-66
2023/01/03 01:51:23;;;;;;;5.25;0.70;;;10.50;99.90;;;;;;4994596;28;20038;-66
2023/01/03 01:53:53;;;;;;;1.63;0.60;;;10.50;99.90;;;;;;4994529;28;20029;-66
2023/01/03 01:56:25;;;;;;;1.55;0.40;;;10.40;99.90;;;;;;4978354;28;20026;-66
2023/01/03 01:58:52;;;;;;;1.27;0.60;;;10.40;99.90;;;;;;4994850;28;20065;-67
2023/01/03 02:01:20;;;;;;;1.85;0.50;;;10.40;99.90;;;;;;4995101;28;20173;-66
2023/01/03 02:03:54;;;;;;;1.67;0.40;;;10.40;99.90;;;;;;4977939;28;20042;-66
2023/01/03 02:06:21;;;;;;;3.03;0.65;;;10.40;99.90;;;;;;4994485;28;20022;-67
2023/01/03 02:08:47;;;;;;;1.38;0.40;;;10.40;99.90;;;;;;4994467;28;20038;-66
2023/01/03 02:15:15;;;;;;;2.00;0.43;;;10.30;99.90;;;;;;4917434;29;20103;-66
2023/01/03 02:18:11;;;;;;;4.43;0.77;;;10.30;99.90;;;;;;4960196;28;20163;-67
2023/01/03 02:21:03;;;;;;;1.48;0.60;;;10.10;99.90;;;;;;4974734;28;20114;-67
2023/01/03 02:23:41;;;;;;;;;;;10.10;99.90;;;;;;4975165;28;20175;-66
2023/01/03 02:26:34;;;;;;;2.80;0.60;;;10.00;99.90;;;;;;4974845;28;19906;-66
2023/01/03 02:29:15;;;;;;;0.45;0.32;;;10.00;99.90;;;;;;4974655;28;20023;-66
2023/01/03 02:31:51;;;;;;;0.93;0.40;;;10.00;99.90;;;;;;4958400;28;20042;-66
2023/01/03 02:34:22;;;;;;;1.98;0.60;;;10.20;99.90;;;;;;4958294;28;20027;-66
2023/01/03 02:37:04;;;;;;;0.90;0.50;;;10.10;99.90;;;;;;4958106;28;20027;-66
2023/01/03 02:39:56;;;;;;;2.15;0.63;;;10.10;99.90;;;;;;4974847;28;20043;-66
2023/01/03 02:45:36;;;;;;;2.35;0.88;;;10.00;99.90;;;;;;5022152;28;20044;-66
2023/01/03 02:48:15;;;;;;;1.15;0.85;;;10.00;99.90;;;;;;5055131;28;20040;-66
2023/01/03 02:50:46;;;;;;;0.60;0.60;;;10.00;99.90;;;;;;5037130;28;20025;-66
2023/01/03 02:53:20;;;;;;;2.30;0.50;;;10.00;99.90;;;;;;5055251;28;20104;-66
2023/01/03 02:55:49;;;;;;;0.40;0.30;;;10.00;99.90;;;;;;5053860;28;20025;-66
2023/01/03 02:58:20;;;;;;;1.33;0.63;;;10.00;99.90;;;;;;5054111;28;20071;-66
2023/01/03 03:00:51;;;;;;;0.70;0.55;;;10.00;99.90;;;;;;5053482;28;20052;-66
2023/01/03 03:03:23;;;;;;;1.95;0.85;;;10.00;99.90;;;;;;5054214;28;20024;-66
2023/01/03 03:05:58;;;;;;;0.63;0.50;;;9.90;99.90;;;;;;5054910;28;20029;-66
2023/01/03 03:08:24;;;;;;;0.52;0.50;;;9.80;99.90;;;;;;5054302;28;20027;-66
2023/01/03 03:14:00;;;;;;;2.55;0.85;;;9.90;99.90;;;;;;5054770;28;20032;-66
2023/01/03 03:16:47;;;;;;;3.13;0.47;;;9.90;99.90;;;;;;5053135;28;20063;-66
2023/01/03 03:25:21;;;;;;;0.63;0.50;;;9.90;99.90;;;;;;5054661;28;20040;-66
2023/01/03 03:30:37;;;;;;;5.88;1.88;;;9.90;99.90;;;;;;5055022;28;20040;-66
2023/01/03 03:33:05;;;;;;;1.45;1.35;;;9.90;99.90;;;;;;5052868;28;20045;-66
2023/01/03 03:35:38;;;;;;;3.22;0.65;;;10.00;99.90;;;;;;5052794;28;20025;-66
2023/01/03 03:38:06;;;;;;;0.90;0.80;;;10.00;99.90;;;;;;5052939;28;20025;-66
2023/01/03 03:46:20;;;;;;;1.20;0.60;;;10.00;99.90;;;;;;5054075;28;20048;-66
2023/01/03 03:51:46;;;;;;;1.85;0.57;;;10.00;99.90;;;;;;5054315;28;20036;-66
2023/01/03 03:54:18;;;;;;;1.00;0.50;;;9.90;99.90;;;;;;5053946;28;20112;-66
2023/01/03 03:56:46;;;;;;;;;;;9.90;99.90;;;;;;5052908;28;20032;-66
2023/01/03 03:59:13;;;;;;;0.80;0.65;;;9.90;99.90;;;;;;5035859;28;19904;-66
2023/01/03 04:01:41;;;;;;;1.00;0.50;;;9.80;99.90;;;;;;5052780;28;20477;-66
2023/01/03 04:04:14;;;;;;;3.15;0.73;;;9.90;99.90;;;;;;5053665;28;20021;-66
2023/01/03 04:06:44;;;;;;;4.57;0.68;;;9.90;99.90;;;;;;5052427;28;20036;-66
2023/01/03 04:09:10;;;;;;;1.98;0.73;;;9.80;99.90;;;;;;5054061;28;20029;-66
2023/01/03 04:11:35;;;;;;;0.95;0.68;;;9.80;99.90;;;;;;5053879;28;20025;-66
2023/01/03 04:14:01;;;;;;;1.17;0.55;;;9.80;99.90;;;;;;5052481;28;20055;-66
2023/01/03 04:16:26;;;;;;;4.07;0.50;;;9.80;99.90;;;;;;5052370;28;20028;-66
2023/01/03 04:18:52;;;;;;;1.08;0.50;;;9.90;99.90;;;;;;5052221;28;20029;-66
2023/01/03 04:21:18;;;;;;;0.45;0.40;;;9.90;99.90;;;;;;5053355;28;20067;-66
2023/01/03 04:23:43;;;;;;;3.22;0.70;;;9.80;99.90;;;;;;5052016;28;20029;-66
2023/01/03 04:26:09;;;;;;;0.70;0.50;;;9.90;99.90;;;;;;5052762;28;20036;-66
2023/01/03 04:28:34;;;;;;;0.52;0.50;;;9.90;99.90;;;;;;5051966;28;20032;-67
2023/01/03 04:31:00;;;;;;;2.50;0.60;;;9.90;99.90;;;;;;5053193;28;20025;-66
2023/01/03 04:33:25;;;;;;;2.80;0.38;;;10.00;99.90;;;;;;5051889;28;20036;-66
2023/01/03 04:35:51;;;;;;;1.00;0.60;;;9.90;99.90;;;;;;5052805;28;20056;-66
2023/01/03 04:38:17;;;;;;;0.55;0.55;;;9.90;99.90;;;;;;5051945;28;20048;-66
2023/01/03 04:40:42;;;;;;;2.72;0.50;;;9.90;99.90;;;;;;5052596;28;20061;-66
2023/01/03 04:45:53;;;;;;;0.77;0.43;;;9.80;99.90;;;;;;5053598;28;20121;-66
2023/01/03 04:48:19;;;;;;;1.70;0.32;;;9.80;99.90;;;;;;5051659;28;20115;-66
2023/01/03 04:50:52;;;;;;;0.47;0.40;;;9.70;99.90;;;;;;5052004;28;20074;-66
2023/01/03 04:53:18;;;;;;;0.75;0.50;;;9.60;99.90;;;;;;5051728;28;20025;-66
2023/01/03 04:55:48;;;;;;;0.30;0.20;;;9.50;99.90;;;;;;5051986;28;20079;-66
2023/01/03 04:58:13;;;;;;;1.65;0.30;;;9.50;99.90;;;;;;5051886;28;20086;-66
2023/01/03 05:00:39;;;;;;;1.83;0.40;;;9.50;99.90;;;;;;5056381;28;20029;-66
2023/01/03 05:03:05;;;;;;;0.98;0.50;;;9.40;99.90;;;;;;5055743;28;20035;-66
2023/01/03 05:05:30;;;;;;;1.48;0.52;;;9.50;99.90;;;;;;5055671;28;20021;-66
2023/01/03 05:07:56;;;;;;;0.68;0.40;;;9.40;99.90;;;;;;5057121;28;20472;-66
2023/01/03 05:10:21;;;;;;;1.35;0.60;;;9.40;99.90;;;;;;5055617;28;20028;-66
2023/01/03 05:12:58;;;;;;;0.88;0.40;;;9.30;99.90;;;;;;5055305;28;20096;-66
2023/01/03 05:15:28;;;;;;;4.63;0.60;;;9.30;99.90;;;;;;5057057;28;20025;-66
2023/01/03 05:17:54;;;;;;;1.35;0.40;;;9.30;99.90;;;;;;5055522;28;20029;-66
2023/01/03 05:25:57;;;;;;;1.88;0.50;;;9.30;99.90;;;;;;5057052;28;20028;-66
2023/01/03 05:28:23;;;;;;;2.92;0.50;;;9.30;99.90;;;;;;5055291;28;20098;-66
2023/01/03 05:30:49;;;;;;;0.98;0.25;;;9.30;99.90;;;;;;5056428;28;20033;-66
2023/01/03 05:33:14;;;;;;;0.50;0.30;;;9.10;99.90;;;;;;5056203;28;20421;-66
2023/01/03 05:35:40;;;;;;;6.97;0.82;;;8.90;99.90;;;;;;5055029;28;20566;-66
2023/01/03 05:38:06;;;;;;;2.28;0.47;;;8.70;99.90;;;;;;5055810;28;20025;-66
2023/01/03 05:40:31;;;;;;;1.33;0.57;;;8.50;99.90;;;;;;5054990;28;20022;-66
2023/01/03 05:42:57;;;;;;;4.40;0.70;;;8.40;99.90;;;;;;5056194;28;20036;-66
2023/01/03 05:45:24;;;;;;;1.55;0.45;;;8.30;99.90;;;;;;5056083;28;20040;-66
2023/01/03 05:47:50;;;;;;;1.20;0.40;;;8.40;99.90;;;;;;5054763;28;20029;-66
2023/01/03 05:50:16;;;;;;;2.50;0.50;;;8.50;99.90;;;;;;5056367;28;20029;-66
2023/01/03 05:52:42;;;;;;;0.63;0.40;;;8.50;99.90;;;;;;5054476;28;20056;-66
2023/01/03 05:55:08;;;;;;;1.25;0.75;;;8.50;99.90;;;;;;5054665;28;20384;-66
2023/01/03 05:57:33;;;;;;;1.23;0.63;;;8.40;99.90;;;;;;5055885;28;20023;-66
2023/01/03 05:59:59;;;;;;;1.38;0.70;;;8.30;99.90;;;;;;5054814;28;20022;-66
2023/01/03 06:02:24;;;;;;;1.42;0.63;;;8.20;99.90;;;;;;5056371;28;20028;-66
2023/01/03 06:04:50;;;;;;;2.35;0.88;;;8.10;99.90;;;;;;5054737;28;20033;-66
2023/01/03 06:07:15;;;;;;;0.90;0.73;;;8.10;99.90;;;;;;5055041;28;20043;-66
2023/01/03 06:09:41;;;;;;;2.55;0.98;;;8.00;99.90;;;;;;5053743;28;20071;-66
2023/01/03 06:12:06;;;;;;;4.55;0.70;;;8.10;99.90;;;;;;5055102;28;20025;-66
2023/01/03 06:14:32;;;;;;;3.13;0.63;;;8.10;99.90;;;;;;5054161;28;20150;-66
2023/01/03 06:19:41;;;;;;;2.25;0.60;;;8.20;99.90;;;;;;5055549;28;20043;-66
2023/01/03 06:22:07;;;;;;;1.40;0.68;;;8.30;99.90;;;;;;5054280;28;20500;-66
2023/01/03 06:24:32;;;;;;;0.47;0.40;;;8.20;99.90;;;;;;5055198;28;20041;-66
2023/01/03 06:26:58;;;;;;;1.48;0.68;;;8.20;99.90;;;;;;5054100;28;20063;-66
2023/01/03 06:29:23;;;;;;;3.88;1.00;;;8.00;99.90;;;;;;5055232;28;20056;-66
2023/01/03 06:31:49;;;;;;;1.08;0.50;;;8.00;99.90;;;;;;5055053;28;20108;-66
2023/01/03 06:34:14;;;;;;;4.05;0.70;;;7.90;99.90;;;;;;5053781;28;20020;-66
2023/01/03 06:36:40;;;;;;;0.60;0.50;;;7.80;99.90;;;;;;5055482;28;20021;-66
2023/01/03 06:39:06;;;;;;;5.05;0.95;;;7.80;99.90;;;;;;5054989;28;20024;-66
2023/01/03 06:41:31;;;;;;;3.80;0.80;;;7.80;99.90;;;;;;5054685;28;20033;-66
2023/01/03 06:43:57;;;;;;;0.98;0.60;;;7.70;99.90;;;;;;5055204;28;20586;-66
2023/01/03 06:54:42;;;;;;;2.22;1.00;;;7.60;99.90;;;;;;5054872;28;20059;-66
2023/01/03 06:57:07;;;;;;;2.15;1.20;;;7.60;99.90;;;;;;5054771;28;20025;-66
2023/01/03 06:59:33;;;;;;;3.22;1.20;;;7.60;99.90;;;;;;5053403;28;20021;-66
2023/01/03 07:01:58;;;;;;;4.88;1.35;;;7.50;99.90;;;;;;5054885;28;20028;-66
2023/01/03 07:04:25;;;;;;;3.78;1.05;;;7.40;99.90;;;;;;5054633;28;20070;-66
2023/01/03 07:06:50;;;;;;;4.85;1.35;;;7.30;99.90;;;;;;5037485;28;20032;-66
2023/01/03 07:09:16;;;;;;;1.95;0.80;;;7.20;99.90;;;;;;5053295;28;20028;-66
2023/01/03 07:11:42;;;;;;;2.40;0.80;;;7.10;99.90;;;;;;5054391;28;20086;-66
2023/01/03 07:14:09;;;;;;;1.58;1.08;;;7.00;99.90;;;;;;5054673;28;20017;-66
2023/01/03 07:16:55;;;;;;;0.80;0.80;;;6.90;99.90;;;;;;5054681;28;20051;-66
2023/01/03 07:19:20;;;;;;;1.95;1.30;;;6.80;99.90;;;;;;5053927;28;20021;-66
2023/01/03 07:21:46;;;;;;;2.10;1.02;;;6.70;99.90;;;;;;5053391;28;20027;-66
2023/01/03 07:24:13;;;;;;;2.42;1.23;;;6.80;99.90;;;;;;5053068;28;20037;-66
2023/01/03 07:26:39;;;;;;;1.67;1.30;;;6.80;99.90;;;;;;5054171;28;20029;-66
2023/01/03 07:29:08;;;;;;;2.28;1.42;;;6.80;99.90;;;;;;5054080;28;20031;-66
2023/01/03 07:31:37;;;;;;;2.75;1.33;;;6.80;99.90;;;;;;5036035;28;20140;-66
2023/01/03 07:34:02;;;;;;;3.42;2.08;;;6.70;99.90;;;;;;5052698;28;20056;-66
2023/01/03 07:36:28;;;;;;;2.08;1.58;;;6.70;99.90;;;;;;5052696;28;20029;-66
2023/01/03 07:38:54;;;;;;;2.08;1.33;;;6.70;99.90;;;;;;5052625;28;20053;-66
2023/01/03 07:41:20;;;;;;;4.82;1.92;;;6.70;99.90;;;;;;5053686;28;20017;-66
2023/01/03 07:43:48;;;;;;;6.45;1.75;;;6.70;99.90;;;;;;5052897;28;20021;-66
2023/01/03 07:46:22;;;;;;;4.53;2.00;;;6.80;99.90;;;;;;5052632;28;20021;-66
2023/01/03 07:48:53;;;;;;;5.35;1.98;;;6.80;99.90;;;;;;5053503;28;20078;-66
2023/01/03 07:51:20;;;;;;;3.30;2.13;;;6.80;99.90;;;;;;5053304;28;20021;-66
2023/01/03 07:53:50;;;;;;;5.10;1.98;;;6.70;99.90;;;;;;5053312;28;20036;-66
2023/01/03 07:56:18;;;;;;;3.25;1.95;;;6.50;99.90;;;;;;5053624;28;20021;-66
2023/01/03 07:58:45;;;;;;;4.88;2.03;;;6.50;99.90;;;;;;5053639;28;20040;-66
2023/01/03 08:01:16;;;;;;;8.25;2.10;;;6.50;99.90;;;;;;5053603;28;20083;-66
2023/01/03 08:03:42;;;;;;;3.42;2.28;;;6.40;99.90;;;;;;5053899;28;20025;-66
2023/01/03 08:06:11;;;;;;;8.38;2.33;;;6.40;99.90;;;;;;5053389;28;20021;-66
2023/01/03 08:08:37;;;;;;;4.88;2.38;;;6.40;99.90;;;;;;5052595;28;20054;-66
2023/01/03 08:13:47;;;;;;;6.18;2.38;;;6.40;99.90;;;;;;5053687;28;20167;-66
2023/01/03 08:16:15;;;;;;;3.80;2.08;;;6.40;99.90;;;;;;5053329;28;20049;-66
2023/01/03 08:18:42;;;;;;;3.28;2.03;;;6.50;99.90;;;;;;5052319;28;20100;-66
2023/01/03 08:21:09;;;;;;;3.92;2.17;;;6.50;99.90;;;;;;5053858;28;20027;-66
2023/01/03 08:23:35;;;;;;;7.65;2.47;;;6.60;99.90;;;;;;5054004;28;20082;-66
2023/01/03 08:26:07;;;;;;;9.45;4.45;;;6.60;99.90;;;;;;5051898;28;20021;-66
2023/01/03 08:28:33;;;;;;;9.60;6.20;;;6.70;99.90;;;;;;5053452;28;20053;-66
2023/01/03 08:31:02;;;;;;;14.00;6.35;;;6.80;99.90;;;;;;5052641;28;20029;-66
2023/01/03 08:33:33;;;;;;;20.08;7.80;;;6.90;99.90;;;;;;5052700;28;20041;-66
2023/01/03 08:36:05;;;;;;;16.17;9.23;;;6.90;99.90;;;;;;5053482;28;20089;-66
2023/01/03 08:39:18;;;;;;;13.15;8.43;;;6.80;99.90;;;;;;5053144;28;20029;-66
2023/01/03 08:41:53;;;;;;;26.33;11.75;;;6.90;99.90;;;;;;5031249;28;20067;-66
2023/01/03 08:44:19;;;;;;;18.38;9.25;;;6.80;99.90;;;;;;5052988;28;20021;-66
2023/01/03 08:46:50;;;;;;;16.70;8.55;;;6.80;99.90;;;;;;5051730;28;20083;-66
2023/01/03 08:49:16;;;;;;;16.10;9.20;;;6.80;99.90;;;;;;5052487;28;20060;-66
2023/01/03 08:51:42;;;;;;;23.33;13.65;;;7.10;99.90;;;;;;5052844;28;20080;-66
2023/01/03 08:54:07;;;;;;;22.02;11.75;;;7.00;99.90;;;;;;5051598;28;20021;-66
2023/01/03 08:56:35;;;;;;;23.17;12.27;;;6.90;99.90;;;;;;5053041;28;20071;-66
2023/01/03 08:59:01;;;;;;;17.75;11.50;;;6.90;99.90;;;;;;5053621;28;20021;-66
2023/01/03 09:01:27;;;;;;;13.02;7.78;;;7.00;99.90;;;;;;5052752;28;20115;-66
2023/01/03 09:03:52;;;;;;;6.68;4.75;;;7.20;99.90;;;;;;5053057;28;20075;-66
2023/01/03 09:06:18;;;;;;;12.18;8.32;;;7.30;99.90;;;;;;5053004;28;20021;-66
2023/01/03 09:08:44;;;;;;;16.13;7.68;;;7.30;99.90;;;;;;5053354;28;20017;-66
2023/01/03 09:11:10;;;;;;;12.05;7.22;;;7.40;99.90;;;;;;5051565;28;20108;-66
2023/01/03 09:13:36;;;;;;;10.13;4.53;;;7.50;99.90;;;;;;5052824;28;20491;-66
2023/01/03 09:16:03;;;;;;;6.55;4.13;;;7.70;99.90;;;;;;5052237;28;20045;-66
2023/01/03 09:18:28;;;;;;;5.80;3.70;;;7.70;99.90;;;;;;5052835;28;20021;-66
2023/01/03 09:20:54;;;;;;;3.88;2.33;;;7.80;99.90;;;;;;5054627;28;20154;-66
2023/01/03 09:23:19;;;;;;;6.72;2.72;;;7.90;99.90;;;;;;5054598;28;20024;-66
2023/01/03 09:25:46;;;;;;;8.80;6.28;;;7.90;99.90;;;;;;5073273;28;20108;-66
2023/01/03 09:28:12;;;;;;;11.05;5.32;;;7.90;99.90;;;;;;5072771;28;20032;-66
2023/01/03 09:30:37;;;;;;;18.85;8.63;;;7.80;99.90;;;;;;5055462;28;20025;-66
2023/01/03 09:33:03;;;;;;;10.45;6.70;;;7.80;99.90;;;;;;5054470;28;20024;-67
2023/01/03 09:35:30;;;;;;;13.02;7.72;;;7.80;99.90;;;;;;5072504;28;20023;-66
2023/01/03 09:37:55;;;;;;;7.95;5.22;;;7.90;99.90;;;;;;5054753;28;20048;-67
2023/01/03 09:40:21;;;;;;;7.47;3.97;;;7.90;99.90;;;;;;5054952;28;20017;-67
2023/01/03 09:45:33;;;;;;;7.15;2.70;;;8.00;99.90;;;;;;5074553;28;20031;-67
2023/01/03 09:48:01;;;;;;;6.03;2.10;;;8.20;99.90;;;;;;5058546;28;20028;-67
2023/01/03 09:50:30;;;;;;;4.05;1.90;;;8.30;99.90;;;;;;5058617;28;20035;-67
2023/01/03 10:04:47;;;;;;;2.25;1.42;;;8.90;99.90;;;;;;5076179;28;20020;-67
2023/01/03 10:07:47;;;;;;;1.98;1.38;;;8.90;99.90;;;;;;5075726;28;20043;-67
2023/01/03 10:10:15;;;;;;;2.55;1.48;;;9.10;99.90;;;;;;5057942;28;20068;-66
2023/01/03 10:12:52;;;;;;;10.10;2.10;;;9.30;99.90;;;;;;5075601;28;20032;-67
2023/01/03 10:15:27;;;;;;;2.47;1.50;;;9.50;99.90;;;;;;5075617;28;20043;-67
2023/01/03 10:18:08;;;;;;;2.47;1.33;;;9.50;99.90;;;;;;5075885;28;20081;-66
2023/01/03 10:21:00;;;;;;;7.05;1.42;;;9.50;99.90;;;;;;5076037;28;20024;-67
2023/01/03 10:23:25;;;;;;;4.07;1.75;;;9.60;99.90;;;;;;5057448;28;20496;-66
2023/01/03 10:25:51;;;;;;;2.38;1.50;;;9.50;99.90;;;;;;5057739;28;20031;-66
2023/01/03 10:28:24;;;;;;;6.80;1.90;;;9.60;99.90;;;;;;5057386;28;20074;-67
2023/01/03 10:31:07;;;;;;;2.45;1.63;;;9.70;99.90;;;;;;5057358;28;20074;-67
2023/01/03 10:33:39;;;;;;;3.35;1.98;;;9.70;99.90;;;;;;5075083;28;20052;-67
2023/01/03 10:36:07;;;;;;;4.10;2.90;;;9.70;99.90;;;;;;5057540;28;20425;-67
2023/01/03 10:38:33;;;;;;;2.72;1.38;;;9.80;99.90;;;;;;5057431;28;20027;-67
2023/01/03 10:41:00;;;;;;;4.35;1.40;;;9.80;99.90;;;;;;5057160;28;20017;-66
2023/01/03 10:43:42;;;;;;;4.15;1.40;;;10.00;99.90;;;;;;5057518;28;20028;-66
2023/01/03 10:46:20;;;;;;;2.75;1.40;;;10.00;99.90;;;;;;5057645;28;20032;-66
2023/01/03 10:48:51;;;;;;;8.02;1.80;;;10.00;99.90;;;;;;5057012;28;20398;-66
2023/01/03 10:51:22;;;;;;;3.72;1.40;;;10.10;99.90;;;;;;5075047;28;20051;-66
2023/01/03 10:53:50;;;;;;;1.92;1.30;;;10.30;99.90;;;;;;5075064;28;20049;-66
2023/01/03 10:56:17;;;;;;;2.35;0.93;;;10.40;99.90;;;;;;5057034;28;20021;-66
2023/01/03 10:58:42;;;;;;;2.10;0.93;;;10.40;99.90;;;;;;5074866;28;20048;-66
2023/01/03 11:01:21;;;;;;;4.85;0.95;;;10.40;99.90;;;;;;5074737;28;20028;-66
2023/01/03 11:04:18;;;;;;;1.75;0.93;;;10.30;99.90;;;;;;5074597;28;20548;-66
2023/01/03 11:06:59;;;;;;;3.30;0.90;;;10.30;99.90;;;;;;5056677;28;20103;-66
2023/01/03 11:09:29;;;;;;;2.78;0.75;;;10.30;99.90;;;;;;5057829;28;20028;-66
2023/01/03 11:12:16;;;;;;;2.60;0.77;;;10.20;99.90;;;;;;5057371;28;20077;-66
2023/01/03 11:14:50;;;;;;;1.02;0.50;;;10.30;99.90;;;;;;5074404;28;20055;-66
2023/01/03 11:17:19;;;;;;;6.43;1.50;;;10.40;99.90;;;;;;5074448;28;20020;-66
2023/01/03 11:19:45;;;;;;;1.65;0.80;;;10.50;99.90;;;;;;5074418;28;20379;-66
2023/01/03 11:22:40;;;;;;;3.55;1.00;;;10.70;99.90;;;;;;5074598;28;20484;-66
2023/01/03 11:25:11;;;;;;;5.00;1.20;;;10.90;99.90;;;;;;5074724;28;20047;-66
2023/01/03 11:27:59;;;;;;;3.78;1.00;;;11.20;99.90;;;;;;5056248;28;20021;-66
2023/01/03 11:30:38;;;;;;;2.25;0.98;;;11.30;99.90;;;;;;5074154;28;20021;-66
2023/01/03 11:33:25;;;;;;;3.42;0.70;;;11.50;99.90;;;;;;5056134;28;20035;-65
2023/01/03 11:36:24;;;;;;;3.65;0.65;;;11.70;99.90;;;;;;5057118;28;20025;-66
2023/01/03 11:39:19;;;;;;;6.30;1.65;;;11.90;99.90;;;;;;5056090;28;20021;-66
2023/01/03 11:42:03;;;;;;;1.63;0.65;;;12.00;99.90;;;;;;5035679;28;20059;-66
2023/01/03 11:45:01;;;;;;;4.00;0.90;;;12.00;99.90;;;;;;5074353;28;20104;-65
2023/01/03 11:47:38;;;;;;;3.53;0.80;;;12.10;99.90;;;;;;5056846;28;20039;-65
2023/01/03 11:50:19;;;;;;;3.38;0.85;;;11.90;99.90;;;;;;5074027;28;20025;-66
2023/01/03 11:52:53;;;;;;;2.53;0.57;;;11.70;99.90;;;;;;5055720;28;20025;-66
2023/01/03 11:55:37;;;;;;;1.75;0.60;;;11.70;99.90;;;;;;5073737;28;20017;-66
2023/01/03 11:58:37;;;;;;;4.95;2.65;;;11.60;99.90;;;;;;5073844;28;20054;-65
2023/01/03 12:01:47;;;;;;;4.95;3.28;;;11.40;99.90;;;;;;5073713;28;20494;-66
2023/01/03 12:04:35;;;;;;;5.75;2.83;;;11.00;99.90;;;;;;5055667;28;20036;-64
2023/01/03 12:07:15;;;;;;;4.88;3.05;;;11.40;99.90;;;;;;5073372;28;20028;-64
2023/01/03 12:10:02;;;;;;;13.02;3.25;;;11.40;99.90;;;;;;5043917;28;20029;-65
2023/01/03 12:13:00;;;;;;;6.03;3.53;;;11.50;99.90;;;;;;5053642;28;20025;-64
2023/01/03 12:15:50;;;;;;;6.57;3.70;;;11.50;99.90;;;;;;5053567;28;20028;-65
2023/01/03 12:18:22;;;;;;;7.40;4.00;;;11.70;99.90;;;;;;5035305;28;20021;-64
2023/01/03 12:20:58;;;;;;;6.75;3.88;;;11.60;99.90;;;;;;5053278;28;20017;-64
2023/01/03 12:23:42;;;;;;;16.20;4.75;;;11.80;99.90;;;;;;5053437;28;20033;-64
2023/01/03 12:26:14;;;;;;;7.55;4.28;;;11.70;99.90;;;;;;5053475;28;20021;-64
2023/01/03 12:28:45;;;;;;;8.02;4.68;;;11.40;99.90;;;;;;5053254;28;20108;-64
2023/01/03 12:31:30;;;;;;;9.95;4.82;;;11.20;99.90;;;;;;5036120;28;20093;-64
2023/01/03 12:34:08;;;;;;;8.02;4.63;;;10.90;99.90;;;;;;5035206;28;20102;-64
2023/01/03 12:36:50;;;;;;;13.82;4.88;;;10.80;99.90;;;;;;5053642;28;20064;-65
2023/01/03 12:39:39;;;;;;;9.00;4.65;;;10.50;99.90;;;;;;5035879;28;20028;-64
2023/01/03 12:42:34;;;;;;;8.43;4.70;;;10.20;99.90;;;;;;5035192;28;20028;-64
2023/01/03 12:45:09;;;;;;;9.10;5.00;;;10.20;99.90;;;;;;5035037;28;20025;-64
2023/01/03 12:47:45;;;;;;;9.68;4.45;;;10.20;99.90;;;;;;5035987;28;20038;-64
2023/01/03 12:50:41;;;;;;;8.20;4.68;;;10.20;99.90;;;;;;5035106;28;20090;-64
2023/01/03 12:53:21;;;;;;;8.18;4.85;;;10.20;99.90;;;;;;5035774;28;20028;-64
2023/01/03 12:55:58;;;;;;;9.65;4.53;;;10.20;99.90;;;;;;5035451;28;20040;-64
2023/01/03 12:58:47;;;;;;;7.78;4.68;;;10.10;99.90;;;;;;5035231;28;20033;-64
2023/01/03 13:01:57;;;;;;;10.40;5.40;;;10.20;99.90;;;;;;5052789;28;20031;-64
2023/01/03 13:04:37;;;;;;;12.93;4.80;;;10.10;99.90;;;;;;5034833;28;20392;-64
2023/01/03 13:07:18;;;;;;;10.00;5.13;;;10.30;99.90;;;;;;5052711;28;20025;-64
2023/01/03 13:09:50;;;;;;;10.38;4.43;;;10.30;99.90;;;;;;5035266;28;20039;-64
2023/01/03 13:12:20;;;;;;;9.38;4.82;;;10.30;99.90;;;;;;5035417;28;20025;-64
2023/01/03 13:14:53;;;;;;;6.55;4.07;;;10.30;99.90;;;;;;5052915;28;20009;-64
2023/01/03 13:17:27;;;;;;;9.73;3.67;;;10.60;99.90;;;;;;5035348;28;20036;-64
2023/01/03 13:19:54;;;;;;;7.38;4.13;;;10.70;99.90;;;;;;5053056;28;20025;-65
2023/01/03 13:22:44;;;;;;;7.63;4.03;;;11.00;99.90;;;;;;5039133;28;20061;-65
2023/01/03 13:25:38;;;;;;;6.00;4.07;;;11.20;99.90;;;;;;5056614;28;20044;-65
2023/01/03 13:28:28;;;;;;;7.43;3.42;;;11.10;99.90;;;;;;5056684;28;20436;-65
2023/01/03 13:31:18;;;;;;;6.38;3.10;;;10.90;99.90;;;;;;5029011;28;20041;-64
2023/01/03 13:34:28;;;;;;;6.07;2.95;;;11.00;99.90;;;;;;5056276;28;20028;-64
2023/01/03 13:37:05;;;;;;;5.95;2.95;;;10.60;99.90;;;;;;4959288;28;20037;-64
2023/01/03 13:39:42;;;;;;;4.45;2.38;;;10.50;99.90;;;;;;4975550;28;20532;-64
2023/01/03 13:42:28;;;;;;;5.03;2.53;;;10.50;99.90;;;;;;4959209;28;20038;-65
2023/01/03 13:45:13;;;;;;;10.45;2.55;;;10.60;99.90;;;;;;4959098;28;20039;-64
2023/01/03 13:47:48;;;;;;;4.40;2.72;;;10.60;99.90;;;;;;4958926;28;20053;-64
2023/01/03 13:50:30;;;;;;;3.45;2.00;;;10.70;99.90;;;;;;4975318;28;20038;-65
2023/01/03 13:53:11;;;;;;;4.95;2.42;;;10.80;99.90;;;;;;4975234;28;20033;-65
2023/01/03 13:55:43;;;;;;;9.23;2.40;;;10.90;99.90;;;;;;4958944;28;20027;-65
2023/01/03 13:58:38;;;;;;;2.80;1.70;;;11.00;99.90;;;;;;4975091;28;20035;-65
2023/01/03 14:04:34;;;;;;;2.60;0.95;;;11.20;99.90;;;;;;4975349;28;20081;-64
2023/01/03 14:07:30;;;;;;;4.35;0.93;;;11.20;99.90;;;;;;4959309;28;20031;-65
2023/01/03 14:10:04;;;;;;;1.92;0.50;;;11.20;99.90;;;;;;4966961;28;20120;-65
2023/01/03 14:12:54;;;;;;;1.08;0.50;;;11.30;99.90;;;;;;5056148;28;20029;-65
2023/01/03 14:15:22;;;;;;;3.45;1.10;;;11.30;99.90;;;;;;5055908;28;20024;-65
2023/01/03 14:17:50;;;;;;;2.58;0.90;;;11.40;99.90;;;;;;5037684;28;20386;-65
2023/01/03 14:20:27;;;;;;;1.58;0.70;;;11.30;99.90;;;;;;5055824;28;20024;-65
2023/01/03 14:22:54;;;;;;;0.70;0.47;;;11.30;99.90;;;;;;5055416;28;20025;-65
2023/01/03 14:25:49;;;;;;;2.80;0.63;;;11.40;99.90;;;;;;5037514;28;20373;-65